Time;durP1;ratioP1;P1;durP2;ratioP2;P2;SDS_P1;SDS_P2;PMS_P1;PMS_P2;Temp;Humidity;BMP_temperature;BMP_pressure;BME280_temperature;BME280_humidity;BME280_pressure;Samples;Min_cycle;Max_cycle;Signal;HPM_P1;HPM_P2
2023/02/22 00:00:26;;;;;;;28.50;21.48;;;11.20;99.90;;;;;;5012773;28;20056;-84
2023/02/22 00:02:58;;;;;;;28.65;21.77;;;11.20;99.90;;;;;;4995416;28;20405;-84
2023/02/22 00:05:26;;;;;;;30.17;22.63;;;11.20;99.90;;;;;;5012670;28;20026;-84
2023/02/22 00:07:52;;;;;;;27.75;22.40;;;11.20;99.90;;;;;;5030663;28;20022;-84
2023/02/22 00:10:22;;;;;;;26.42;22.42;;;11.20;99.90;;;;;;5032473;28;20037;-85
2023/02/22 00:12:50;;;;;;;28.00;22.35;;;11.20;99.90;;;;;;5032733;28;20030;-84
2023/02/22 00:15:17;;;;;;;27.70;22.50;;;11.20;99.90;;;;;;5032458;28;20120;-84
2023/02/22 00:17:43;;;;;;;33.08;23.45;;;11.20;99.90;;;;;;5031958;28;20025;-84
2023/02/22 00:20:12;;;;;;;27.58;23.67;;;11.20;99.90;;;;;;5036420;28;20119;-84
2023/02/22 00:22:45;;;;;;;28.17;23.23;;;11.20;99.90;;;;;;5035865;28;20021;-84
2023/02/22 00:25:11;;;;;;;29.27;23.17;;;11.30;99.90;;;;;;5036639;28;20037;-84
2023/02/22 00:27:37;;;;;;;28.27;23.00;;;11.20;99.90;;;;;;5036427;28;20413;-84
2023/02/22 00:30:04;;;;;;;30.00;23.35;;;11.20;99.90;;;;;;5036153;28;20013;-85
2023/02/22 00:32:30;;;;;;;29.63;23.95;;;11.20;99.90;;;;;;5036154;28;20032;-85
2023/02/22 00:34:56;;;;;;;29.55;23.25;;;11.20;99.90;;;;;;5036565;28;20045;-84
2023/02/22 00:37:21;;;;;;;30.90;23.75;;;11.20;99.90;;;;;;5036272;28;20052;-84
2023/02/22 00:39:49;;;;;;;28.00;22.55;;;11.30;99.90;;;;;;5035961;28;20560;-84
2023/02/22 00:42:16;;;;;;;30.48;24.38;;;11.20;99.90;;;;;;5018645;28;20121;-84
2023/02/22 00:44:42;;;;;;;29.30;23.65;;;11.20;99.90;;;;;;5016358;28;20030;-84
2023/02/22 00:47:08;;;;;;;32.40;23.17;;;11.20;99.90;;;;;;4999213;28;20081;-84
2023/02/22 00:49:34;;;;;;;28.98;23.30;;;11.20;99.90;;;;;;5015936;28;20034;-84
2023/02/22 00:52:00;;;;;;;29.02;22.92;;;11.10;99.90;;;;;;5025660;28;20045;-84
2023/02/22 00:54:26;;;;;;;34.67;24.60;;;11.20;99.90;;;;;;5035553;28;20098;-84
2023/02/22 00:56:51;;;;;;;29.92;23.73;;;11.20;99.90;;;;;;5035957;28;20051;-84
2023/02/22 00:59:17;;;;;;;29.85;23.45;;;11.10;99.90;;;;;;5035593;28;20184;-84
2023/02/22 01:01:43;;;;;;;33.13;23.90;;;11.10;99.90;;;;;;5035628;28;20028;-84
2023/02/22 01:04:09;;;;;;;30.40;24.98;;;10.90;99.90;;;;;;5036018;28;20061;-84
2023/02/22 01:06:35;;;;;;;33.65;25.25;;;11.00;99.90;;;;;;5035054;28;20100;-84
2023/02/22 01:09:02;;;;;;;34.67;24.65;;;11.00;99.90;;;;;;5035593;28;20033;-84
2023/02/22 01:11:29;;;;;;;32.08;24.88;;;11.00;99.90;;;;;;5035574;28;20499;-84
2023/02/22 01:13:56;;;;;;;28.42;23.75;;;11.10;99.90;;;;;;5035173;28;20575;-84
2023/02/22 01:16:22;;;;;;;31.30;23.85;;;11.20;99.90;;;;;;5035316;28;20104;-84
2023/02/22 01:18:48;;;;;;;30.42;24.77;;;11.20;99.90;;;;;;5035721;28;20593;-84
2023/02/22 01:21:14;;;;;;;30.80;23.63;;;11.30;99.90;;;;;;5034871;28;20544;-84
2023/02/22 01:23:39;;;;;;;30.10;24.70;;;11.20;99.90;;;;;;5035045;28;20045;-84
2023/02/22 01:26:05;;;;;;;34.15;25.25;;;11.20;99.90;;;;;;5035239;28;20017;-84
2023/02/22 01:28:31;;;;;;;31.92;23.70;;;11.20;99.90;;;;;;5035395;28;20022;-84
2023/02/22 01:30:57;;;;;;;28.90;24.13;;;11.20;99.90;;;;;;5033967;28;20490;-84
2023/02/22 01:33:23;;;;;;;31.98;25.90;;;11.30;99.90;;;;;;5017267;28;20021;-84
2023/02/22 01:35:49;;;;;;;30.55;23.58;;;11.20;99.90;;;;;;5034725;28;20033;-84
2023/02/22 01:38:15;;;;;;;33.40;25.50;;;11.30;99.90;;;;;;5034753;28;20030;-84
2023/02/22 01:40:45;;;;;;;33.33;24.95;;;11.30;99.90;;;;;;5030127;28;20033;-84
2023/02/22 01:43:28;;;;;;;30.70;24.02;;;11.30;99.90;;;;;;5015079;28;20053;-84
2023/02/22 01:46:02;;;;;;;31.77;23.98;;;11.30;99.90;;;;;;5014914;28;20037;-84
2023/02/22 01:48:43;;;;;;;32.10;25.08;;;11.30;99.90;;;;;;5015094;28;20045;-84
2023/02/22 01:51:36;;;;;;;29.85;24.10;;;11.20;99.90;;;;;;5014994;28;20026;-84
2023/02/22 01:54:17;;;;;;;33.38;23.83;;;11.20;99.90;;;;;;5015330;28;20024;-84
2023/02/22 01:57:05;;;;;;;33.65;23.95;;;11.30;99.90;;;;;;5014691;28;20050;-84
2023/02/22 01:59:34;;;;;;;31.15;24.48;;;11.20;99.90;;;;;;5014511;28;20037;-85
2023/02/22 02:02:03;;;;;;;32.67;24.40;;;11.20;99.90;;;;;;5015018;28;20025;-84
2023/02/22 02:04:31;;;;;;;32.58;24.75;;;11.10;99.90;;;;;;5014033;28;20440;-84
2023/02/22 02:07:01;;;;;;;34.00;25.30;;;11.20;99.90;;;;;;5015068;28;20252;-84
2023/02/22 02:09:39;;;;;;;30.52;24.00;;;11.10;99.90;;;;;;5014837;28;20029;-84
2023/02/22 02:12:08;;;;;;;29.83;24.52;;;11.00;99.90;;;;;;5014643;28;20076;-84
2023/02/22 02:14:39;;;;;;;31.48;24.95;;;11.00;99.90;;;;;;5014304;28;20026;-84
2023/02/22 02:17:08;;;;;;;30.70;24.05;;;11.00;99.90;;;;;;5014612;28;20117;-84
2023/02/22 02:19:42;;;;;;;32.05;24.83;;;10.90;99.90;;;;;;5013775;28;20062;-84
2023/02/22 02:22:29;;;;;;;30.10;24.20;;;10.90;99.90;;;;;;5014699;28;20053;-84
2023/02/22 02:25:32;;;;;;;30.50;24.30;;;10.90;99.90;;;;;;5014079;28;20050;-84
2023/02/22 02:28:35;;;;;;;36.13;24.10;;;10.80;99.90;;;;;;5014224;28;20026;-84
2023/02/22 02:31:29;;;;;;;30.45;24.88;;;10.90;99.90;;;;;;5014057;28;20042;-84
2023/02/22 02:34:14;;;;;;;32.55;24.73;;;10.80;99.90;;;;;;4933899;29;20040;-84
2023/02/22 02:37:03;;;;;;;28.15;23.65;;;10.80;99.90;;;;;;4934408;29;20090;-84
2023/02/22 02:39:52;;;;;;;28.88;23.38;;;10.80;99.90;;;;;;4934482;29;20054;-84
2023/02/22 02:42:22;;;;;;;30.98;24.02;;;10.70;99.90;;;;;;4893957;29;20044;-84
2023/02/22 02:44:55;;;;;;;31.20;23.80;;;10.70;99.90;;;;;;4896317;29;20141;-84
2023/02/22 02:47:28;;;;;;;29.17;23.73;;;10.70;99.90;;;;;;4895819;29;20088;-84
2023/02/22 02:50:03;;;;;;;31.50;23.58;;;10.70;99.90;;;;;;4896166;29;20035;-84
2023/02/22 02:52:32;;;;;;;28.38;23.35;;;10.70;99.90;;;;;;4896862;29;20071;-84
2023/02/22 02:54:58;;;;;;;34.90;23.90;;;10.70;99.90;;;;;;4900497;29;20029;-85
2023/02/22 02:57:24;;;;;;;30.50;24.30;;;10.70;99.90;;;;;;4899153;29;20127;-84
2023/02/22 02:59:50;;;;;;;32.55;23.90;;;10.80;99.90;;;;;;4914943;29;20127;-84
2023/02/22 03:02:40;;;;;;;28.25;23.25;;;10.80;99.90;;;;;;4914730;29;20079;-84
2023/02/22 03:05:30;;;;;;;32.60;22.48;;;10.70;99.90;;;;;;4914914;29;20040;-84
2023/02/22 03:08:03;;;;;;;28.70;22.27;;;10.70;99.90;;;;;;4914922;29;20039;-84
2023/02/22 03:10:52;;;;;;;27.80;22.60;;;10.70;99.90;;;;;;4935034;28;20085;-84
2023/02/22 03:13:38;;;;;;;31.33;22.88;;;10.50;99.90;;;;;;4972267;28;20045;-84
2023/02/22 03:16:51;;;;;;;31.42;23.10;;;10.60;99.90;;;;;;4972116;28;20086;-85
2023/02/22 03:19:31;;;;;;;33.58;23.95;;;10.60;99.90;;;;;;4989899;28;20096;-84
2023/02/22 03:22:42;;;;;;;29.95;22.63;;;10.50;99.90;;;;;;5013865;28;20073;-84
2023/02/22 03:25:23;;;;;;;29.00;22.55;;;10.50;99.90;;;;;;4914403;29;20050;-84
2023/02/22 03:27:54;;;;;;;25.88;20.75;;;10.30;99.90;;;;;;4914548;29;20119;-84
2023/02/22 03:30:26;;;;;;;28.75;22.52;;;10.40;99.90;;;;;;4914388;29;20436;-84
2023/02/22 03:32:59;;;;;;;30.88;22.63;;;10.50;99.90;;;;;;4914175;29;20040;-84
2023/02/22 03:35:30;;;;;;;28.98;21.40;;;10.50;99.90;;;;;;4914623;29;20148;-84
2023/02/22 03:38:01;;;;;;;30.17;22.67;;;10.50;99.90;;;;;;4914181;29;20529;-84
2023/02/22 03:40:32;;;;;;;28.58;22.58;;;10.40;99.90;;;;;;4919241;29;20455;-84
2023/02/22 03:43:04;;;;;;;29.75;22.42;;;10.40;99.90;;;;;;4952337;29;20179;-84
2023/02/22 03:45:31;;;;;;;27.88;20.63;;;10.40;99.90;;;;;;4952158;29;20038;-84
2023/02/22 03:48:09;;;;;;;25.25;20.70;;;10.50;99.90;;;;;;4952474;29;20039;-84
2023/02/22 03:50:36;;;;;;;27.73;21.55;;;10.40;99.90;;;;;;4952400;29;20110;-84
2023/02/22 03:53:02;;;;;;;26.48;21.48;;;10.40;99.90;;;;;;4952003;28;20034;-85
2023/02/22 03:55:30;;;;;;;31.42;21.23;;;10.30;99.90;;;;;;4944117;29;20095;-84
2023/02/22 03:57:58;;;;;;;28.52;21.42;;;10.40;99.90;;;;;;4933143;29;20024;-84
2023/02/22 04:00:26;;;;;;;27.52;22.00;;;10.50;99.90;;;;;;4932850;29;20039;-85
2023/02/22 04:02:52;;;;;;;27.90;21.42;;;10.50;99.90;;;;;;5022645;28;20120;-84
2023/02/22 04:05:18;;;;;;;29.75;21.23;;;10.60;99.90;;;;;;5032413;28;20112;-84
2023/02/22 04:07:44;;;;;;;27.10;21.30;;;10.50;99.90;;;;;;5032354;28;20032;-84
2023/02/22 04:10:11;;;;;;;26.85;22.60;;;10.50;99.90;;;;;;5032427;28;20108;-84
2023/02/22 04:12:37;;;;;;;26.70;21.58;;;10.50;99.90;;;;;;5032353;28;20037;-84
2023/02/22 04:15:05;;;;;;;26.55;20.30;;;10.30;99.90;;;;;;5031942;28;20076;-84
2023/02/22 04:17:31;;;;;;;27.73;21.27;;;10.40;99.90;;;;;;5032721;28;20076;-84
2023/02/22 04:19:57;;;;;;;28.52;20.23;;;10.40;99.90;;;;;;5032274;28;20366;-84
2023/02/22 04:22:23;;;;;;;30.00;22.45;;;10.40;99.90;;;;;;5032629;28;20542;-85
2023/02/22 04:24:49;;;;;;;26.98;20.73;;;10.40;99.90;;;;;;5031907;28;20045;-84
2023/02/22 04:27:15;;;;;;;27.83;21.25;;;10.30;99.90;;;;;;5014550;28;20025;-84
2023/02/22 04:29:40;;;;;;;31.40;22.23;;;10.40;99.90;;;;;;5031798;28;20104;-84
2023/02/22 04:32:06;;;;;;;25.83;20.88;;;10.20;99.90;;;;;;5032065;28;20030;-85
2023/02/22 04:34:32;;;;;;;25.63;20.33;;;10.20;99.90;;;;;;5032192;28;20025;-84
2023/02/22 04:36:58;;;;;;;25.88;20.48;;;10.20;99.90;;;;;;5032093;28;20029;-84
2023/02/22 04:39:24;;;;;;;30.48;21.40;;;10.30;99.90;;;;;;5031839;28;20052;-84
2023/02/22 04:41:49;;;;;;;29.70;21.48;;;10.00;99.90;;;;;;5031847;28;20041;-84
2023/02/22 04:44:15;;;;;;;28.00;21.08;;;10.10;99.90;;;;;;5031560;28;20025;-85
2023/02/22 04:46:41;;;;;;;28.77;21.17;;;10.10;99.90;;;;;;5032086;28;20029;-84
2023/02/22 04:49:06;;;;;;;28.88;20.90;;;10.10;99.90;;;;;;5031881;28;20409;-83
2023/02/22 04:51:32;;;;;;;26.70;21.00;;;10.20;99.90;;;;;;5031836;28;20046;-84
2023/02/22 04:53:57;;;;;;;27.30;21.13;;;9.90;99.90;;;;;;5031887;28;20030;-84
2023/02/22 04:56:23;;;;;;;30.42;21.52;;;9.80;99.90;;;;;;5015435;28;20368;-84
2023/02/22 04:58:49;;;;;;;30.02;21.90;;;9.70;99.90;;;;;;5012113;28;20045;-84
2023/02/22 05:01:15;;;;;;;30.10;21.67;;;9.70;99.90;;;;;;5013529;28;20034;-96
2023/02/22 05:03:41;;;;;;;29.15;21.52;;;9.60;99.90;;;;;;5014850;28;20116;-94
2023/02/22 05:06:07;;;;;;;28.00;21.30;;;9.50;99.90;;;;;;5018734;28;20124;-96
2023/02/22 05:08:33;;;;;;;25.60;19.65;;;9.70;99.90;;;;;;5003044;28;20497;-94
2023/02/22 05:10:59;;;;;;;29.02;19.90;;;9.70;99.90;;;;;;5019692;28;20045;-96
2023/02/22 05:13:25;;;;;;;27.90;20.85;;;9.80;99.90;;;;;;5021538;28;20032;-96
2023/02/22 05:15:50;;;;;;;30.88;20.17;;;9.80;99.90;;;;;;5001376;28;20037;-96
2023/02/22 05:18:16;;;;;;;24.88;19.08;;;9.70;99.90;;;;;;5018568;28;20510;-96
2023/02/22 05:20:42;;;;;;;28.33;20.95;;;9.80;99.90;;;;;;5018684;28;20026;-96
2023/02/22 05:23:07;;;;;;;24.50;19.63;;;10.00;99.90;;;;;;5000978;28;20118;-96
2023/02/22 05:25:33;;;;;;;24.73;20.38;;;10.00;99.90;;;;;;5001056;28;20133;-94
2023/02/22 05:28:04;;;;;;;29.45;22.33;;;9.80;99.90;;;;;;5018283;28;20113;-96
2023/02/22 05:30:32;;;;;;;26.02;19.73;;;9.70;99.90;;;;;;5000878;28;20026;-96
2023/02/22 05:32:59;;;;;;;25.35;19.85;;;9.60;99.90;;;;;;5001263;28;20026;-94
2023/02/22 05:35:26;;;;;;;25.38;20.35;;;9.70;99.90;;;;;;5000883;28;20033;-96
2023/02/22 05:37:52;;;;;;;30.60;21.70;;;9.70;99.90;;;;;;5000478;28;20030;-94
2023/02/22 05:40:23;;;;;;;27.73;20.67;;;9.60;99.90;;;;;;5001880;28;20478;-94
2023/02/22 05:42:50;;;;;;;25.10;20.35;;;9.70;99.90;;;;;;5038862;28;20057;-95
2023/02/22 05:45:19;;;;;;;27.40;22.50;;;9.70;99.90;;;;;;5038567;28;20022;-94
2023/02/22 05:47:45;;;;;;;27.20;20.90;;;9.70;99.90;;;;;;5022507;28;20116;-94
2023/02/22 05:50:11;;;;;;;31.73;22.23;;;9.60;99.90;;;;;;5040989;28;20066;-94
2023/02/22 05:52:37;;;;;;;27.95;21.08;;;9.70;99.90;;;;;;5039750;28;20094;-94
2023/02/22 05:55:04;;;;;;;32.85;22.13;;;9.70;99.90;;;;;;5037357;28;20029;-94
2023/02/22 05:57:30;;;;;;;27.27;20.90;;;9.60;99.90;;;;;;5037515;28;20022;-96
2023/02/22 05:59:56;;;;;;;30.65;22.15;;;9.40;99.90;;;;;;5019841;28;20036;-95
2023/02/22 06:02:21;;;;;;;28.98;21.55;;;9.60;99.90;;;;;;5037802;28;20021;-96
2023/02/22 06:04:47;;;;;;;27.63;22.27;;;9.70;99.90;;;;;;5037709;28;20036;-95
2023/02/22 06:07:13;;;;;;;34.20;25.02;;;9.50;99.90;;;;;;5020199;28;20048;-96
2023/02/22 06:09:39;;;;;;;34.53;25.48;;;9.20;99.90;;;;;;5019793;28;20021;-96
2023/02/22 06:12:06;;;;;;;31.17;22.25;;;9.10;99.90;;;;;;5038358;28;20112;-96
2023/02/22 06:14:31;;;;;;;36.92;26.13;;;9.20;99.90;;;;;;5037620;28;20028;-96
2023/02/22 06:16:59;;;;;;;36.22;25.05;;;9.10;99.90;;;;;;5036740;28;20034;-96
2023/02/22 06:19:25;;;;;;;34.10;23.23;;;9.30;99.90;;;;;;5037442;28;20113;-96
2023/02/22 06:21:53;;;;;;;38.22;25.40;;;9.20;99.90;;;;;;5019508;28;20028;-96
2023/02/22 06:24:20;;;;;;;31.67;24.48;;;9.30;99.90;;;;;;5019820;28;20049;-96
2023/02/22 06:26:58;;;;;;;32.22;23.08;;;9.40;99.90;;;;;;5021035;28;20052;-96
2023/02/22 06:29:26;;;;;;;29.98;22.35;;;9.30;99.90;;;;;;5025975;28;20033;-96
2023/02/22 06:31:54;;;;;;;29.92;21.80;;;9.30;99.90;;;;;;5023653;28;20025;-96
2023/02/22 06:34:20;;;;;;;31.00;21.67;;;9.30;99.90;;;;;;5020743;28;20021;-96
2023/02/22 06:36:47;;;;;;;29.60;20.15;;;9.30;99.90;;;;;;5020920;28;20025;-96
2023/02/22 06:39:15;;;;;;;29.30;19.48;;;9.50;99.90;;;;;;5035311;28;20033;-95
2023/02/22 06:41:42;;;;;;;28.30;19.30;;;9.60;99.90;;;;;;5018904;28;20026;-94
2023/02/22 06:44:09;;;;;;;32.55;22.75;;;9.60;99.90;;;;;;5019023;28;20030;-96
2023/02/22 06:46:35;;;;;;;28.25;20.67;;;9.60;99.90;;;;;;5036065;28;20234;-96
2023/02/22 06:49:01;;;;;;;24.75;19.90;;;9.60;99.90;;;;;;5036326;28;20348;-96
2023/02/22 06:51:28;;;;;;;26.23;19.17;;;9.70;99.90;;;;;;5036360;28;20034;-96
2023/02/22 06:53:54;;;;;;;26.52;18.60;;;9.90;99.90;;;;;;5036160;28;20025;-94
2023/02/22 06:56:20;;;;;;;22.70;16.85;;;9.90;99.90;;;;;;5036030;28;20034;-94
2023/02/22 06:58:46;;;;;;;24.13;17.92;;;10.00;99.90;;;;;;5035817;28;20041;-95
2023/02/22 07:01:12;;;;;;;27.98;21.38;;;10.10;99.90;;;;;;5036133;28;20037;-94
2023/02/22 07:03:37;;;;;;;25.92;20.52;;;10.00;99.90;;;;;;5018655;28;20025;-94
2023/02/22 07:06:05;;;;;;;22.83;17.60;;;10.10;99.90;;;;;;5036257;28;20088;-94
2023/02/22 07:08:31;;;;;;;19.90;16.10;;;10.20;99.90;;;;;;5017559;28;20037;-94
2023/02/22 07:10:56;;;;;;;19.17;15.77;;;10.30;99.90;;;;;;5036052;28;20532;-94
2023/02/22 07:13:22;;;;;;;18.63;15.38;;;10.50;99.90;;;;;;5018263;28;20033;-94
2023/02/22 07:15:47;;;;;;;19.85;14.82;;;10.60;99.90;;;;;;5035894;28;20030;-94
2023/02/22 07:18:14;;;;;;;21.23;15.77;;;10.60;99.90;;;;;;5017932;28;22369;-94
2023/02/22 07:20:41;;;;;;;19.27;14.77;;;10.70;99.90;;;;;;5017859;28;20034;-94
2023/02/22 07:23:06;;;;;;;19.92;15.52;;;10.80;99.90;;;;;;5017185;28;20057;-93
2023/02/22 07:25:32;;;;;;;16.52;14.25;;;10.80;99.90;;;;;;5035440;28;20397;-94
2023/02/22 07:27:58;;;;;;;19.73;15.27;;;11.00;99.90;;;;;;5035872;28;20025;-94
2023/02/22 07:30:30;;;;;;;29.92;22.88;;;11.10;99.90;;;;;;5018072;28;20033;-95
2023/02/22 07:32:58;;;;;;;40.67;28.38;;;10.80;99.90;;;;;;5035300;28;20076;-94
2023/02/22 07:35:27;;;;;;;42.58;27.67;;;10.30;99.90;;;;;;5035685;28;20039;-94
2023/02/22 07:37:53;;;;;;;40.25;27.65;;;10.40;99.90;;;;;;5034849;28;20025;-94
2023/02/22 07:40:20;;;;;;;42.88;27.40;;;10.40;99.90;;;;;;5033934;28;20034;-94
2023/02/22 07:43:20;;;;;;;45.92;28.35;;;10.00;99.90;;;;;;4998217;28;20028;-94
2023/02/22 07:45:48;;;;;;;42.90;28.42;;;10.10;99.90;;;;;;5015615;28;20053;-93
2023/02/22 07:48:16;;;;;;;40.72;27.17;;;10.10;99.90;;;;;;5027178;28;20022;-92
2023/02/22 07:50:41;;;;;;;44.60;27.65;;;10.40;99.90;;;;;;5021273;28;20030;-92
2023/02/22 07:53:11;;;;;;;42.72;27.23;;;10.60;99.90;;;;;;5027701;28;20033;-94
2023/02/22 07:55:37;;;;;;;42.80;25.58;;;10.70;99.90;;;;;;5025365;28;20072;-91
2023/02/22 07:58:06;;;;;;;35.78;24.05;;;10.70;99.90;;;;;;4996220;28;20033;-91
2023/02/22 08:00:38;;;;;;;31.98;23.40;;;10.90;99.90;;;;;;5009503;28;20398;-90
2023/02/22 08:03:08;;;;;;;31.63;22.42;;;11.10;99.90;;;;;;5013303;28;20618;-90
2023/02/22 08:05:36;;;;;;;26.83;21.70;;;11.20;99.90;;;;;;5013661;28;20375;-90
2023/02/22 08:08:02;;;;;;;27.48;21.13;;;11.20;99.90;;;;;;5031303;28;20037;-90
2023/02/22 08:10:29;;;;;;;29.02;20.98;;;11.30;99.90;;;;;;5013975;28;20037;-90
2023/02/22 08:12:55;;;;;;;31.60;21.27;;;11.40;99.90;;;;;;5032382;28;20036;-90
2023/02/22 08:15:36;;;;;;;29.73;20.80;;;11.50;99.90;;;;;;5032666;28;20030;-90
2023/02/22 08:18:04;;;;;;;28.23;21.65;;;11.60;99.90;;;;;;5032796;28;20041;-90
2023/02/22 08:20:30;;;;;;;29.83;22.25;;;11.50;99.90;;;;;;5032567;28;20067;-90
2023/02/22 08:22:57;;;;;;;24.50;19.27;;;11.60;99.90;;;;;;5014240;28;20413;-90
2023/02/22 08:25:26;;;;;;;26.25;17.50;;;11.70;99.90;;;;;;5032626;28;20032;-89
2023/02/22 08:27:57;;;;;;;18.25;16.25;;;11.90;99.90;;;;;;5032161;28;20485;-89
2023/02/22 08:30:23;;;;;;;22.15;16.50;;;11.90;99.90;;;;;;5032587;28;20022;-90
2023/02/22 08:32:50;;;;;;;19.80;15.38;;;11.70;99.90;;;;;;5032235;28;20032;-90
2023/02/22 08:35:18;;;;;;;18.90;15.13;;;11.80;99.90;;;;;;5014581;28;20048;-90
2023/02/22 08:37:48;;;;;;;24.33;15.82;;;11.90;99.90;;;;;;5032561;28;20502;-95
2023/02/22 08:40:16;;;;;;;24.30;16.73;;;11.90;99.90;;;;;;5024246;28;20061;-92
2023/02/22 08:42:43;;;;;;;20.52;16.42;;;11.70;99.90;;;;;;5019663;28;20120;-93
2023/02/22 08:45:09;;;;;;;20.77;15.75;;;11.60;99.90;;;;;;5019851;28;20033;-92
2023/02/22 08:47:35;;;;;;;20.10;15.45;;;11.60;99.90;;;;;;5037349;28;20021;-92
2023/02/22 08:50:00;;;;;;;19.67;15.90;;;11.40;99.90;;;;;;5019222;28;20486;-92
2023/02/22 08:52:26;;;;;;;17.48;15.50;;;11.60;99.90;;;;;;5019493;28;20026;-90
2023/02/22 08:54:52;;;;;;;19.33;15.70;;;11.70;99.90;;;;;;5015474;28;20040;-93
2023/02/22 08:57:18;;;;;;;22.10;15.80;;;11.60;99.90;;;;;;5017344;28;20060;-92
2023/02/22 08:59:43;;;;;;;22.08;16.90;;;11.60;99.90;;;;;;5016742;28;20066;-92
2023/02/22 09:02:20;;;;;;;20.08;15.90;;;11.70;99.90;;;;;;5017154;28;20501;-93
2023/02/22 09:04:47;;;;;;;20.20;14.50;;;11.90;99.90;;;;;;4999471;28;20038;-92
2023/02/22 09:07:14;;;;;;;17.25;14.77;;;12.20;99.90;;;;;;4999965;28;20101;-92
2023/02/22 09:09:42;;;;;;;20.90;15.70;;;12.20;99.90;;;;;;4999970;28;20030;-92
2023/02/22 09:12:08;;;;;;;16.80;14.43;;;12.40;99.90;;;;;;5004688;28;20026;-92
2023/02/22 09:14:33;;;;;;;19.90;15.88;;;12.50;99.90;;;;;;5022819;28;20040;-93
2023/02/22 09:16:59;;;;;;;21.40;16.08;;;12.40;99.90;;;;;;5009696;28;20022;-92
2023/02/22 09:19:25;;;;;;;20.77;15.57;;;12.30;99.90;;;;;;5016634;28;20080;-92
2023/02/22 09:21:55;;;;;;;17.02;14.57;;;12.40;99.90;;;;;;4999894;28;20021;-92
2023/02/22 09:24:21;;;;;;;18.17;14.57;;;12.60;99.90;;;;;;5016856;28;20053;-92
2023/02/22 09:26:50;;;;;;;20.38;14.07;;;12.70;99.90;;;;;;4999254;28;20120;-92
2023/02/22 09:29:16;;;;;;;18.48;13.82;;;12.60;99.90;;;;;;5016770;28;20030;-92
2023/02/22 09:31:42;;;;;;;19.17;14.85;;;12.70;99.90;;;;;;4999209;28;20108;-92
2023/02/22 09:34:14;;;;;;;19.65;14.05;;;12.80;99.90;;;;;;5017001;28;20067;-92
2023/02/22 09:36:45;;;;;;;19.85;15.25;;;12.60;99.90;;;;;;5016774;28;20033;-93
2023/02/22 09:39:13;;;;;;;21.63;14.43;;;12.50;99.90;;;;;;5016279;28;20054;-91
2023/02/22 09:41:55;;;;;;;20.98;14.60;;;12.60;99.90;;;;;;5028658;28;20118;-93
2023/02/22 09:44:46;;;;;;;16.25;13.35;;;13.00;99.90;;;;;;5018654;28;20022;-92
2023/02/22 09:47:17;;;;;;;18.65;13.30;;;13.10;99.90;;;;;;5036156;28;20084;-93
2023/02/22 09:50:14;;;;;;;17.73;13.63;;;13.20;99.90;;;;;;5035848;28;20036;-92
2023/02/22 09:53:03;;;;;;;14.73;12.40;;;13.10;99.90;;;;;;5035621;28;20030;-93
2023/02/22 09:56:04;;;;;;;22.65;13.38;;;13.00;99.90;;;;;;5035822;28;20037;-93
2023/02/22 09:58:37;;;;;;;19.45;12.30;;;13.30;99.90;;;;;;5014385;28;20520;-93
2023/02/22 10:01:18;;;;;;;18.65;12.90;;;13.20;99.90;;;;;;5018567;28;20413;-91
2023/02/22 10:04:09;;;;;;;19.30;12.73;;;13.10;99.90;;;;;;5018169;28;20100;-92
2023/02/22 10:06:37;;;;;;;13.55;11.82;;;13.00;99.90;;;;;;5018385;28;20030;-93
2023/02/22 10:09:06;;;;;;;15.50;11.05;;;13.30;99.90;;;;;;5035455;28;20033;-91
2023/02/22 10:11:48;;;;;;;14.25;11.35;;;13.40;99.90;;;;;;5035470;28;20494;-92
2023/02/22 10:14:52;;;;;;;17.55;11.93;;;13.30;99.90;;;;;;5035483;28;20025;-93
2023/02/22 10:17:51;;;;;;;13.23;10.82;;;13.30;99.90;;;;;;5017634;28;20029;-93
2023/02/22 10:20:48;;;;;;;12.75;10.48;;;13.30;99.90;;;;;;5017677;28;20102;-93
2023/02/22 10:23:35;;;;;;;14.57;9.98;;;13.40;99.90;;;;;;5035011;28;20033;-93
2023/02/22 10:26:12;;;;;;;17.88;11.07;;;13.80;99.90;;;;;;5035488;28;20029;-93
2023/02/22 10:29:01;;;;;;;14.80;11.18;;;14.00;99.90;;;;;;5035438;28;20032;-91
2023/02/22 10:31:38;;;;;;;14.35;10.45;;;13.80;99.90;;;;;;5034363;28;20571;-93
2023/02/22 10:34:22;;;;;;;11.88;10.52;;;13.60;99.90;;;;;;5035480;28;20039;-92
2023/02/22 10:36:56;;;;;;;12.15;10.18;;;13.50;99.90;;;;;;5035310;28;20030;-92
2023/02/22 10:39:27;;;;;;;11.32;9.30;;;13.70;99.90;;;;;;5035020;28;20040;-92
2023/02/22 10:41:56;;;;;;;14.43;10.23;;;13.70;99.90;;;;;;5003079;28;20053;-93
2023/02/22 10:44:22;;;;;;;12.10;9.55;;;13.70;99.90;;;;;;4997901;28;20040;-92
2023/02/22 10:46:49;;;;;;;11.38;9.23;;;13.70;99.90;;;;;;4998265;28;20063;-93
2023/02/22 10:49:22;;;;;;;13.05;9.45;;;13.60;99.90;;;;;;5015263;28;20038;-92
2023/02/22 10:51:58;;;;;;;16.17;9.38;;;13.50;99.90;;;;;;5014809;28;20101;-92
2023/02/22 10:54:29;;;;;;;13.82;8.82;;;13.30;99.90;;;;;;5014963;28;20099;-93
2023/02/22 10:56:56;;;;;;;11.93;9.05;;;13.40;99.90;;;;;;4997707;28;20030;-92
2023/02/22 10:59:35;;;;;;;11.50;9.05;;;13.10;99.90;;;;;;4997717;28;20041;-93
2023/02/22 11:02:27;;;;;;;13.13;9.35;;;13.20;99.90;;;;;;5014226;28;20548;-92
2023/02/22 11:04:56;;;;;;;12.60;9.20;;;13.20;99.90;;;;;;5014420;28;20065;-93
2023/02/22 11:07:26;;;;;;;10.40;8.65;;;13.30;99.90;;;;;;5014956;28;20100;-93
2023/02/22 11:10:08;;;;;;;16.60;9.27;;;13.10;99.90;;;;;;4997370;28;20022;-92
2023/02/22 11:12:41;;;;;;;11.18;9.00;;;13.20;99.90;;;;;;5014836;28;20033;-93
2023/02/22 11:15:15;;;;;;;12.38;9.13;;;13.20;99.90;;;;;;4997127;28;20107;-93
2023/02/22 11:17:44;;;;;;;13.02;9.10;;;12.90;99.90;;;;;;5014811;28;20080;-92
2023/02/22 11:20:24;;;;;;;13.07;8.80;;;12.90;99.90;;;;;;5014941;28;20037;-93
2023/02/22 11:22:59;;;;;;;12.70;8.82;;;12.70;99.90;;;;;;4997311;28;20034;-92
2023/02/22 11:25:30;;;;;;;10.55;8.82;;;12.80;99.90;;;;;;5014590;28;20072;-93
2023/02/22 11:28:13;;;;;;;11.43;9.38;;;12.80;99.90;;;;;;4997205;28;20085;-92
2023/02/22 11:30:42;;;;;;;12.00;8.85;;;13.00;99.90;;;;;;4996651;28;20033;-93
2023/02/22 11:33:22;;;;;;;12.52;9.48;;;13.00;99.90;;;;;;5014638;28;20068;-93
2023/02/22 11:35:56;;;;;;;14.57;9.43;;;12.80;99.90;;;;;;5014321;28;20133;-92
2023/02/22 11:38:27;;;;;;;12.73;9.65;;;12.90;99.90;;;;;;5014292;28;20026;-93
2023/02/22 11:41:21;;;;;;;11.25;9.10;;;12.80;99.90;;;;;;5014352;28;20120;-93
2023/02/22 11:43:49;;;;;;;12.35;9.63;;;12.70;99.90;;;;;;5014014;28;20014;-93
2023/02/22 11:46:27;;;;;;;11.48;9.60;;;12.70;99.90;;;;;;4997489;28;20056;-92
2023/02/22 11:49:03;;;;;;;11.73;9.32;;;12.60;99.90;;;;;;5014090;28;20033;-93
2023/02/22 11:51:31;;;;;;;13.68;9.52;;;12.50;99.90;;;;;;5014200;28;20034;-93
2023/02/22 11:54:27;;;;;;;12.93;9.60;;;12.40;99.90;;;;;;4996702;28;20026;-93
2023/02/22 11:56:59;;;;;;;15.88;10.88;;;12.60;99.90;;;;;;5013901;28;20442;-92
2023/02/22 11:59:57;;;;;;;11.32;9.70;;;12.50;99.90;;;;;;5013789;28;20041;-93
2023/02/22 12:02:29;;;;;;;15.55;10.02;;;12.40;99.90;;;;;;5013917;28;20042;-93
2023/02/22 12:05:09;;;;;;;15.30;10.60;;;12.60;99.90;;;;;;4996899;28;20108;-92
2023/02/22 12:07:53;;;;;;;12.25;10.10;;;12.60;99.90;;;;;;5013943;28;20033;-93
2023/02/22 12:10:18;;;;;;;12.70;10.32;;;12.50;99.90;;;;;;5014363;28;20095;-92
2023/02/22 12:13:15;;;;;;;14.35;9.75;;;12.60;99.90;;;;;;5013765;28;20026;-90
2023/02/22 12:15:50;;;;;;;15.63;11.07;;;12.60;99.90;;;;;;5013327;28;20033;-92
2023/02/22 12:18:31;;;;;;;13.32;10.10;;;12.70;99.90;;;;;;4996357;28;20033;-93
2023/02/22 12:21:00;;;;;;;13.73;9.98;;;12.80;99.90;;;;;;5013801;28;20033;-93
2023/02/22 12:23:43;;;;;;;14.65;10.35;;;12.60;99.90;;;;;;4996178;28;20141;-93
2023/02/22 12:26:29;;;;;;;13.80;10.10;;;12.50;99.90;;;;;;5014167;28;20053;-93
2023/02/22 12:29:03;;;;;;;15.13;9.93;;;12.60;99.90;;;;;;5013386;28;20037;-93
2023/02/22 12:31:38;;;;;;;12.85;10.80;;;12.70;99.90;;;;;;5013771;28;20032;-92
2023/02/22 12:34:27;;;;;;;13.20;10.35;;;12.80;99.90;;;;;;5013420;28;20030;-92
2023/02/22 12:37:20;;;;;;;14.10;9.70;;;12.90;99.90;;;;;;5014088;28;20026;-92
2023/02/22 12:40:24;;;;;;;14.65;10.30;;;12.70;99.90;;;;;;5026857;28;20057;-92
2023/02/22 12:43:04;;;;;;;14.45;9.65;;;12.70;99.90;;;;;;5015532;28;20034;-92
2023/02/22 12:45:44;;;;;;;12.85;9.98;;;13.00;99.90;;;;;;5019988;28;20037;-92
2023/02/22 12:48:23;;;;;;;14.38;10.00;;;13.00;99.90;;;;;;5013553;28;20112;-93
2023/02/22 12:50:55;;;;;;;11.73;10.38;;;13.00;99.90;;;;;;5013441;28;20117;-93
2023/02/22 12:53:27;;;;;;;12.88;10.38;;;12.90;99.90;;;;;;5013576;28;20036;-93